sensor_id;sensor_type;location;lat;lon;timestamp;temperature;humidity
8595;DHT22;4335;48.860;9.198;2023-02-21T00:00:44;6.50;99.90
8595;DHT22;4335;48.860;9.198;2023-02-21T00:03:37;6.40;99.90
8595;DHT22;4335;48.860;9.198;2023-02-21T00:06:22;6.40;99.90
8595;DHT22;4335;48.860;9.198;2023-02-21T00:09:06;6.40;99.90
8595;DHT22;4335;48.860;9.198;2023-02-21T00:11:51;6.40;99.90
8595;DHT22;4335;48.860;9.198;2023-02-21T00:14:37;6.40;99.90
8595;DHT22;4335;48.860;9.198;2023-02-21T00:17:21;6.30;99.90
8595;DHT22;4335;48.860;9.198;2023-02-21T00:20:10;6.30;99.90
8595;DHT22;4335;48.860;9.198;2023-02-21T00:22:54;6.30;99.90
8595;DHT22;4335;48.860;9.198;2023-02-21T00:25:45;6.30;99.90
8595;DHT22;4335;48.860;9.198;2023-02-21T00:28:31;6.30;99.90
8595;DHT22;4335;48.860;9.198;2023-02-21T00:31:20;6.30;99.90
8595;DHT22;4335;48.860;9.198;2023-02-21T00:34:05;6.40;99.90
8595;DHT22;4335;48.860;9.198;2023-02-21T00:36:51;6.40;99.90
8595;DHT22;4335;48.860;9.198;2023-02-21T00:39:36;6.40;99.90
8595;DHT22;4335;48.860;9.198;2023-02-21T00:42:23;6.30;99.90
8595;DHT22;4335;48.860;9.198;2023-02-21T00:45:09;6.40;99.90
8595;DHT22;4335;48.860;9.198;2023-02-21T00:47:54;6.40;99.90
8595;DHT22;4335;48.860;9.198;2023-02-21T00:50:42;6.40;99.90
8595;DHT22;4335;48.860;9.198;2023-02-21T00:53:26;6.40;99.90
8595;DHT22;4335;48.860;9.198;2023-02-21T00:56:11;6.40;99.90
8595;DHT22;4335;48.860;9.198;2023-02-21T00:58:55;6.40;99.90
8595;DHT22;4335;48.860;9.198;2023-02-21T01:01:40;6.40;99.90
8595;DHT22;4335;48.860;9.198;2023-02-21T01:04:25;6.40;99.90
8595;DHT22;4335;48.860;9.198;2023-02-21T01:07:10;6.40;99.90
8595;DHT22;4335;48.860;9.198;2023-02-21T01:09:54;6.40;99.90
8595;DHT22;4335;48.860;9.198;2023-02-21T01:12:45;6.50;99.90
8595;DHT22;4335;48.860;9.198;2023-02-21T01:15:29;6.40;99.90
8595;DHT22;4335;48.860;9.198;2023-02-21T01:18:17;6.40;99.90
8595;DHT22;4335;48.860;9.198;2023-02-21T01:21:02;6.40;99.90
8595;DHT22;4335;48.860;9.198;2023-02-21T01:23:47;6.30;99.90
8595;DHT22;4335;48.860;9.198;2023-02-21T01:26:31;6.30;99.90
8595;DHT22;4335;48.860;9.198;2023-02-21T01:29:16;6.30;99.90
8595;DHT22;4335;48.860;9.198;2023-02-21T01:32:01;6.20;99.90
8595;DHT22;4335;48.860;9.198;2023-02-21T01:34:45;6.20;99.90
8595;DHT22;4335;48.860;9.198;2023-02-21T01:37:31;6.10;99.90
8595;DHT22;4335;48.860;9.198;2023-02-21T01:40:18;6.10;99.90
8595;DHT22;4335;48.860;9.198;2023-02-21T01:43:12;6.00;99.90
8595;DHT22;4335;48.860;9.198;2023-02-21T01:45:57;6.00;99.90
8595;DHT22;4335;48.860;9.198;2023-02-21T01:48:42;5.90;99.90
8595;DHT22;4335;48.860;9.198;2023-02-21T01:51:30;6.00;99.90
8595;DHT22;4335;48.860;9.198;2023-02-21T01:54:20;5.90;99.90
8595;DHT22;4335;48.860;9.198;2023-02-21T01:57:07;5.90;99.90
8595;DHT22;4335;48.860;9.198;2023-02-21T01:59:54;5.90;99.90
8595;DHT22;4335;48.860;9.198;2023-02-21T02:02:46;5.80;99.90
8595;DHT22;4335;48.860;9.198;2023-02-21T02:05:32;5.80;99.90
8595;DHT22;4335;48.860;9.198;2023-02-21T02:08:20;5.80;99.90
8595;DHT22;4335;48.860;9.198;2023-02-21T02:11:13;5.70;99.90
8595;DHT22;4335;48.860;9.198;2023-02-21T02:14:13;5.70;99.90
8595;DHT22;4335;48.860;9.198;2023-02-21T02:16:46;5.70;99.90
8595;DHT22;4335;48.860;9.198;2023-02-21T02:19:40;5.70;99.90
8595;DHT22;4335;48.860;9.198;2023-02-21T02:22:40;5.70;99.90
8595;DHT22;4335;48.860;9.198;2023-02-21T02:25:22;5.70;99.90
8595;DHT22;4335;48.860;9.198;2023-02-21T02:28:07;5.70;99.90
8595;DHT22;4335;48.860;9.198;2023-02-21T02:31:04;5.70;99.90
8595;DHT22;4335;48.860;9.198;2023-02-21T02:36:51;5.70;99.90
8595;DHT22;4335;48.860;9.198;2023-02-21T02:39:26;5.60;99.90
8595;DHT22;4335;48.860;9.198;2023-02-21T02:42:01;5.60;99.90
8595;DHT22;4335;48.860;9.198;2023-02-21T02:44:38;5.60;99.90
8595;DHT22;4335;48.860;9.198;2023-02-21T02:47:09;5.60;99.90
8595;DHT22;4335;48.860;9.198;2023-02-21T02:49:38;5.50;99.90
8595;DHT22;4335;48.860;9.198;2023-02-21T02:52:08;5.50;99.90
8595;DHT22;4335;48.860;9.198;2023-02-21T02:54:35;5.50;99.90
8595;DHT22;4335;48.860;9.198;2023-02-21T02:57:04;5.40;99.90
8595;DHT22;4335;48.860;9.198;2023-02-21T02:59:36;5.40;99.90
8595;DHT22;4335;48.860;9.198;2023-02-21T03:02:20;5.40;99.90
8595;DHT22;4335;48.860;9.198;2023-02-21T03:05:13;5.40;99.90
8595;DHT22;4335;48.860;9.198;2023-02-21T03:07:49;5.40;99.90
8595;DHT22;4335;48.860;9.198;2023-02-21T03:10:22;5.30;99.90
8595;DHT22;4335;48.860;9.198;2023-02-21T03:12:59;5.30;99.90
8595;DHT22;4335;48.860;9.198;2023-02-21T03:15:31;5.20;99.90
8595;DHT22;4335;48.860;9.198;2023-02-21T03:18:04;5.30;99.90
8595;DHT22;4335;48.860;9.198;2023-02-21T03:20:33;5.20;99.90
8595;DHT22;4335;48.860;9.198;2023-02-21T03:23:02;5.20;99.90
8595;DHT22;4335;48.860;9.198;2023-02-21T03:25:31;5.20;99.90
8595;DHT22;4335;48.860;9.198;2023-02-21T03:27:59;5.20;99.90
8595;DHT22;4335;48.860;9.198;2023-02-21T03:30:27;5.10;99.90
8595;DHT22;4335;48.860;9.198;2023-02-21T03:32:57;5.00;99.90
8595;DHT22;4335;48.860;9.198;2023-02-21T03:35:27;5.00;99.90
8595;DHT22;4335;48.860;9.198;2023-02-21T03:37:56;5.00;99.90
8595;DHT22;4335;48.860;9.198;2023-02-21T03:40:25;4.90;99.90
8595;DHT22;4335;48.860;9.198;2023-02-21T03:42:55;4.80;99.90
8595;DHT22;4335;48.860;9.198;2023-02-21T03:45:22;4.80;99.90
8595;DHT22;4335;48.860;9.198;2023-02-21T03:47:50;4.80;99.90
8595;DHT22;4335;48.860;9.198;2023-02-21T03:50:17;4.70;99.90
8595;DHT22;4335;48.860;9.198;2023-02-21T03:52:44;4.70;99.90
8595;DHT22;4335;48.860;9.198;2023-02-21T03:55:11;4.70;99.90
8595;DHT22;4335;48.860;9.198;2023-02-21T03:57:39;4.70;99.90
8595;DHT22;4335;48.860;9.198;2023-02-21T04:00:09;4.60;99.90
8595;DHT22;4335;48.860;9.198;2023-02-21T04:02:36;4.60;99.90
8595;DHT22;4335;48.860;9.198;2023-02-21T04:05:03;4.60;99.90
8595;DHT22;4335;48.860;9.198;2023-02-21T04:07:30;4.60;99.90
8595;DHT22;4335;48.860;9.198;2023-02-21T04:09:56;4.50;99.90
8595;DHT22;4335;48.860;9.198;2023-02-21T04:12:25;4.50;99.90
8595;DHT22;4335;48.860;9.198;2023-02-21T04:14:52;4.50;99.90
8595;DHT22;4335;48.860;9.198;2023-02-21T04:17:21;4.50;99.90
8595;DHT22;4335;48.860;9.198;2023-02-21T04:19:48;4.50;99.90
8595;DHT22;4335;48.860;9.198;2023-02-21T04:22:14;4.40;99.90
8595;DHT22;4335;48.860;9.198;2023-02-21T04:24:41;4.50;99.90
8595;DHT22;4335;48.860;9.198;2023-02-21T04:27:08;4.40;99.90
8595;DHT22;4335;48.860;9.198;2023-02-21T04:29:37;4.50;99.90
8595;DHT22;4335;48.860;9.198;2023-02-21T04:32:05;4.50;99.90
8595;DHT22;4335;48.860;9.198;2023-02-21T04:34:31;4.50;99.90
8595;DHT22;4335;48.860;9.198;2023-02-21T04:36:58;4.40;99.90
8595;DHT22;4335;48.860;9.198;2023-02-21T04:39:25;4.40;99.90
8595;DHT22;4335;48.860;9.198;2023-02-21T04:41:54;4.40;99.90
8595;DHT22;4335;48.860;9.198;2023-02-21T04:44:21;4.40;99.90
8595;DHT22;4335;48.860;9.198;2023-02-21T04:46:48;4.40;99.90
8595;DHT22;4335;48.860;9.198;2023-02-21T04:49:17;4.40;99.90
8595;DHT22;4335;48.860;9.198;2023-02-21T04:51:47;4.50;99.90
8595;DHT22;4335;48.860;9.198;2023-02-21T04:54:17;4.40;99.90
8595;DHT22;4335;48.860;9.198;2023-02-21T04:56:46;4.40;99.90
8595;DHT22;4335;48.860;9.198;2023-02-21T04:59:13;4.40;99.90
8595;DHT22;4335;48.860;9.198;2023-02-21T05:01:39;4.40;99.90
8595;DHT22;4335;48.860;9.198;2023-02-21T05:04:06;4.40;99.90
8595;DHT22;4335;48.860;9.198;2023-02-21T05:06:33;4.40;99.90
8595;DHT22;4335;48.860;9.198;2023-02-21T05:09:01;4.40;99.90
8595;DHT22;4335;48.860;9.198;2023-02-21T05:11:31;4.40;99.90
8595;DHT22;4335;48.860;9.198;2023-02-21T05:13:59;4.40;99.90
8595;DHT22;4335;48.860;9.198;2023-02-21T05:16:29;4.40;99.90
8595;DHT22;4335;48.860;9.198;2023-02-21T05:18:55;4.40;99.90
8595;DHT22;4335;48.860;9.198;2023-02-21T05:21:22;4.40;99.90
8595;DHT22;4335;48.860;9.198;2023-02-21T05:23:49;4.40;99.90
8595;DHT22;4335;48.860;9.198;2023-02-21T05:26:24;4.40;99.90
8595;DHT22;4335;48.860;9.198;2023-02-21T05:28:51;4.40;99.90
8595;DHT22;4335;48.860;9.198;2023-02-21T05:31:18;4.40;99.90
8595;DHT22;4335;48.860;9.198;2023-02-21T05:33:48;4.40;99.90
8595;DHT22;4335;48.860;9.198;2023-02-21T05:36:15;4.40;99.90
8595;DHT22;4335;48.860;9.198;2023-02-21T05:38:47;4.40;99.90
8595;DHT22;4335;48.860;9.198;2023-02-21T05:41:15;4.40;99.90
8595;DHT22;4335;48.860;9.198;2023-02-21T05:43:45;4.40;99.90
8595;DHT22;4335;48.860;9.198;2023-02-21T05:46:18;4.40;99.90
8595;DHT22;4335;48.860;9.198;2023-02-21T05:48:45;4.40;99.90
8595;DHT22;4335;48.860;9.198;2023-02-21T05:51:11;4.40;99.90
8595;DHT22;4335;48.860;9.198;2023-02-21T05:53:38;4.30;99.90
8595;DHT22;4335;48.860;9.198;2023-02-21T05:56:05;4.30;99.90
8595;DHT22;4335;48.860;9.198;2023-02-21T05:58:35;4.30;99.90
8595;DHT22;4335;48.860;9.198;2023-02-21T06:01:02;4.30;99.90
8595;DHT22;4335;48.860;9.198;2023-02-21T06:03:29;4.30;99.90
8595;DHT22;4335;48.860;9.198;2023-02-21T06:05:56;4.30;99.90
8595;DHT22;4335;48.860;9.198;2023-02-21T06:08:22;4.30;99.90
8595;DHT22;4335;48.860;9.198;2023-02-21T06:10:50;4.30;99.90
8595;DHT22;4335;48.860;9.198;2023-02-21T06:13:17;4.30;99.90
8595;DHT22;4335;48.860;9.198;2023-02-21T06:15:44;4.30;99.90
8595;DHT22;4335;48.860;9.198;2023-02-21T06:18:12;4.30;99.90
8595;DHT22;4335;48.860;9.198;2023-02-21T06:20:39;4.30;99.90
8595;DHT22;4335;48.860;9.198;2023-02-21T06:23:05;4.30;99.90
8595;DHT22;4335;48.860;9.198;2023-02-21T06:25:32;4.30;99.90
8595;DHT22;4335;48.860;9.198;2023-02-21T06:27:59;4.30;99.90
8595;DHT22;4335;48.860;9.198;2023-02-21T06:30:26;4.30;99.90
8595;DHT22;4335;48.860;9.198;2023-02-21T06:32:53;4.40;99.90
8595;DHT22;4335;48.860;9.198;2023-02-21T06:35:20;4.30;99.90
8595;DHT22;4335;48.860;9.198;2023-02-21T06:37:46;4.30;99.90
8595;DHT22;4335;48.860;9.198;2023-02-21T06:40:16;4.40;99.90
8595;DHT22;4335;48.860;9.198;2023-02-21T06:42:43;4.40;99.90
8595;DHT22;4335;48.860;9.198;2023-02-21T06:45:10;4.40;99.90
8595;DHT22;4335;48.860;9.198;2023-02-21T06:47:36;4.30;99.90
8595;DHT22;4335;48.860;9.198;2023-02-21T06:50:05;4.30;99.90
8595;DHT22;4335;48.860;9.198;2023-02-21T06:52:32;4.30;99.90
8595;DHT22;4335;48.860;9.198;2023-02-21T06:54:58;4.20;99.90
8595;DHT22;4335;48.860;9.198;2023-02-21T06:57:25;4.30;99.90
8595;DHT22;4335;48.860;9.198;2023-02-21T06:59:52;4.30;99.90
8595;DHT22;4335;48.860;9.198;2023-02-21T07:02:21;4.30;99.90
8595;DHT22;4335;48.860;9.198;2023-02-21T07:04:48;4.40;99.90
8595;DHT22;4335;48.860;9.198;2023-02-21T07:07:15;4.40;99.90
8595;DHT22;4335;48.860;9.198;2023-02-21T07:09:42;4.40;99.90
8595;DHT22;4335;48.860;9.198;2023-02-21T07:12:12;4.50;99.90
8595;DHT22;4335;48.860;9.198;2023-02-21T07:14:38;4.50;99.90
8595;DHT22;4335;48.860;9.198;2023-02-21T07:17:06;4.50;99.90
8595;DHT22;4335;48.860;9.198;2023-02-21T07:19:33;4.50;99.90
8595;DHT22;4335;48.860;9.198;2023-02-21T07:22:05;4.50;99.90
8595;DHT22;4335;48.860;9.198;2023-02-21T07:24:33;4.60;99.90
8595;DHT22;4335;48.860;9.198;2023-02-21T07:27:00;4.60;99.90
8595;DHT22;4335;48.860;9.198;2023-02-21T07:29:28;4.60;99.90
8595;DHT22;4335;48.860;9.198;2023-02-21T07:31:54;4.70;99.90
8595;DHT22;4335;48.860;9.198;2023-02-21T07:34:21;4.70;99.90
8595;DHT22;4335;48.860;9.198;2023-02-21T07:36:48;4.70;99.90
8595;DHT22;4335;48.860;9.198;2023-02-21T07:39:21;4.80;99.90
8595;DHT22;4335;48.860;9.198;2023-02-21T07:41:48;4.90;99.90
8595;DHT22;4335;48.860;9.198;2023-02-21T07:44:15;4.90;99.90
8595;DHT22;4335;48.860;9.198;2023-02-21T07:46:41;4.90;99.90
8595;DHT22;4335;48.860;9.198;2023-02-21T07:49:13;5.10;99.90
8595;DHT22;4335;48.860;9.198;2023-02-21T07:51:39;5.00;99.90
8595;DHT22;4335;48.860;9.198;2023-02-21T07:54:06;5.10;99.90
8595;DHT22;4335;48.860;9.198;2023-02-21T07:56:35;5.10;99.90
8595;DHT22;4335;48.860;9.198;2023-02-21T07:59:08;5.20;99.90
8595;DHT22;4335;48.860;9.198;2023-02-21T08:01:38;5.20;99.90
8595;DHT22;4335;48.860;9.198;2023-02-21T08:04:04;5.30;99.90
8595;DHT22;4335;48.860;9.198;2023-02-21T08:06:33;5.40;99.90
8595;DHT22;4335;48.860;9.198;2023-02-21T08:09:00;5.50;99.90
8595;DHT22;4335;48.860;9.198;2023-02-21T08:11:26;5.50;99.90
8595;DHT22;4335;48.860;9.198;2023-02-21T08:13:56;5.60;99.90
8595;DHT22;4335;48.860;9.198;2023-02-21T08:16:24;5.60;99.90
8595;DHT22;4335;48.860;9.198;2023-02-21T08:18:50;5.70;99.90
8595;DHT22;4335;48.860;9.198;2023-02-21T08:21:20;5.80;99.90
8595;DHT22;4335;48.860;9.198;2023-02-21T08:23:46;5.90;99.90
8595;DHT22;4335;48.860;9.198;2023-02-21T08:26:16;5.90;99.90
8595;DHT22;4335;48.860;9.198;2023-02-21T08:28:43;6.00;99.90
8595;DHT22;4335;48.860;9.198;2023-02-21T08:31:13;6.00;99.90
8595;DHT22;4335;48.860;9.198;2023-02-21T08:33:47;6.10;99.90
8595;DHT22;4335;48.860;9.198;2023-02-21T08:36:13;6.10;99.90
8595;DHT22;4335;48.860;9.198;2023-02-21T08:38:40;6.20;99.90
8595;DHT22;4335;48.860;9.198;2023-02-21T08:41:07;6.30;99.90
8595;DHT22;4335;48.860;9.198;2023-02-21T08:43:35;6.40;99.90
8595;DHT22;4335;48.860;9.198;2023-02-21T08:46:02;6.50;99.90
8595;DHT22;4335;48.860;9.198;2023-02-21T08:48:29;6.50;99.90
8595;DHT22;4335;48.860;9.198;2023-02-21T08:50:56;6.60;99.90
8595;DHT22;4335;48.860;9.198;2023-02-21T08:53:23;6.70;99.90
8595;DHT22;4335;48.860;9.198;2023-02-21T08:55:52;6.70;99.90
8595;DHT22;4335;48.860;9.198;2023-02-21T08:58:22;6.90;99.90
8595;DHT22;4335;48.860;9.198;2023-02-21T09:00:49;6.90;99.90
8595;DHT22;4335;48.860;9.198;2023-02-21T09:03:21;6.90;99.90
8595;DHT22;4335;48.860;9.198;2023-02-21T09:05:51;6.90;99.90
8595;DHT22;4335;48.860;9.198;2023-02-21T09:08:21;6.90;99.90
8595;DHT22;4335;48.860;9.198;2023-02-21T09:10:51;6.90;99.90
8595;DHT22;4335;48.860;9.198;2023-02-21T09:13:18;7.00;99.90
8595;DHT22;4335;48.860;9.198;2023-02-21T09:15:44;7.10;99.90
8595;DHT22;4335;48.860;9.198;2023-02-21T09:18:11;7.20;99.90
8595;DHT22;4335;48.860;9.198;2023-02-21T09:20:44;7.30;99.90
8595;DHT22;4335;48.860;9.198;2023-02-21T09:23:16;7.30;99.90
8595;DHT22;4335;48.860;9.198;2023-02-21T09:25:45;7.50;99.90
8595;DHT22;4335;48.860;9.198;2023-02-21T09:28:12;7.60;99.90
8595;DHT22;4335;48.860;9.198;2023-02-21T09:30:39;7.60;99.90
8595;DHT22;4335;48.860;9.198;2023-02-21T09:33:05;7.60;99.90
8595;DHT22;4335;48.860;9.198;2023-02-21T09:35:32;7.60;99.90
8595;DHT22;4335;48.860;9.198;2023-02-21T09:38:00;7.70;99.90
8595;DHT22;4335;48.860;9.198;2023-02-21T09:40:34;7.70;99.90
8595;DHT22;4335;48.860;9.198;2023-02-21T09:43:10;7.80;99.90
8595;DHT22;4335;48.860;9.198;2023-02-21T09:45:40;7.90;99.90
8595;DHT22;4335;48.860;9.198;2023-02-21T09:48:12;7.90;99.90
8595;DHT22;4335;48.860;9.198;2023-02-21T09:50:44;8.00;99.90
8595;DHT22;4335;48.860;9.198;2023-02-21T09:53:18;8.10;99.90
8595;DHT22;4335;48.860;9.198;2023-02-21T09:55:47;8.20;99.90
8595;DHT22;4335;48.860;9.198;2023-02-21T09:58:17;8.30;99.90
8595;DHT22;4335;48.860;9.198;2023-02-21T10:00:45;8.40;99.90
8595;DHT22;4335;48.860;9.198;2023-02-21T10:03:39;8.40;99.90
8595;DHT22;4335;48.860;9.198;2023-02-21T10:06:16;8.40;99.90
8595;DHT22;4335;48.860;9.198;2023-02-21T10:08:51;8.50;99.90
8595;DHT22;4335;48.860;9.198;2023-02-21T10:11:36;8.50;99.90
8595;DHT22;4335;48.860;9.198;2023-02-21T10:14:17;8.60;99.90
8595;DHT22;4335;48.860;9.198;2023-02-21T10:16:50;8.70;99.90
8595;DHT22;4335;48.860;9.198;2023-02-21T10:19:21;8.80;99.90
8595;DHT22;4335;48.860;9.198;2023-02-21T10:21:57;8.90;99.90
8595;DHT22;4335;48.860;9.198;2023-02-21T10:24:26;9.10;99.90
8595;DHT22;4335;48.860;9.198;2023-02-21T10:26:57;10.50;99.90
8595;DHT22;4335;48.860;9.198;2023-02-21T10:29:40;13.60;99.90
8595;DHT22;4335;48.860;9.198;2023-02-21T10:32:18;17.40;99.90
8595;DHT22;4335;48.860;9.198;2023-02-21T10:34:46;20.70;97.60
8595;DHT22;4335;48.860;9.198;2023-02-21T10:37:35;22.50;88.80
8595;DHT22;4335;48.860;9.198;2023-02-21T10:40:09;24.70;76.80
8595;DHT22;4335;48.860;9.198;2023-02-21T10:42:44;26.40;65.80
8595;DHT22;4335;48.860;9.198;2023-02-21T10:45:25;27.60;58.60
8595;DHT22;4335;48.860;9.198;2023-02-21T10:48:00;28.40;53.40
8595;DHT22;4335;48.860;9.198;2023-02-21T10:50:53;28.70;51.40
8595;DHT22;4335;48.860;9.198;2023-02-21T10:53:33;28.90;50.70
8595;DHT22;4335;48.860;9.198;2023-02-21T10:56:24;29.30;49.50
8595;DHT22;4335;48.860;9.198;2023-02-21T10:58:54;29.90;47.50
8595;DHT22;4335;48.860;9.198;2023-02-21T11:01:31;30.40;44.50
8595;DHT22;4335;48.860;9.198;2023-02-21T11:04:00;31.10;44.30
8595;DHT22;4335;48.860;9.198;2023-02-21T11:06:34;31.60;42.60
8595;DHT22;4335;48.860;9.198;2023-02-21T11:09:02;30.80;42.20
8595;DHT22;4335;48.860;9.198;2023-02-21T11:11:48;29.60;41.90
8595;DHT22;4335;48.860;9.198;2023-02-21T11:14:25;27.50;43.90
8595;DHT22;4335;48.860;9.198;2023-02-21T11:17:12;25.10;46.40
8595;DHT22;4335;48.860;9.198;2023-02-21T11:19:44;23.10;49.60
8595;DHT22;4335;48.860;9.198;2023-02-21T11:22:11;21.20;51.90
8595;DHT22;4335;48.860;9.198;2023-02-21T11:24:48;19.90;54.70
8595;DHT22;4335;48.860;9.198;2023-02-21T11:27:21;19.40;57.20
8595;DHT22;4335;48.860;9.198;2023-02-21T11:29:49;19.60;57.60
8595;DHT22;4335;48.860;9.198;2023-02-21T11:32:25;19.20;58.00
8595;DHT22;4335;48.860;9.198;2023-02-21T11:35:22;18.80;59.80
8595;DHT22;4335;48.860;9.198;2023-02-21T11:37:52;17.90;61.20
8595;DHT22;4335;48.860;9.198;2023-02-21T11:40:27;16.90;64.80
8595;DHT22;4335;48.860;9.198;2023-02-21T11:43:19;16.40;67.90
8595;DHT22;4335;48.860;9.198;2023-02-21T11:48:43;15.10;78.00
8595;DHT22;4335;48.860;9.198;2023-02-21T11:51:25;14.50;82.60
8595;DHT22;4335;48.860;9.198;2023-02-21T11:53:52;14.20;86.00
8595;DHT22;4335;48.860;9.198;2023-02-21T11:56:43;14.00;89.10
8595;DHT22;4335;48.860;9.198;2023-02-21T11:59:27;13.80;90.80
8595;DHT22;4335;48.860;9.198;2023-02-21T12:02:15;13.60;93.30
8595;DHT22;4335;48.860;9.198;2023-02-21T12:05:02;13.50;94.80
8595;DHT22;4335;48.860;9.198;2023-02-21T12:07:39;13.40;96.20
8595;DHT22;4335;48.860;9.198;2023-02-21T12:10:30;13.30;97.20
8595;DHT22;4335;48.860;9.198;2023-02-21T12:13:07;13.20;98.20
8595;DHT22;4335;48.860;9.198;2023-02-21T12:15:41;13.20;99.00
8595;DHT22;4335;48.860;9.198;2023-02-21T12:18:38;13.20;99.50
8595;DHT22;4335;48.860;9.198;2023-02-21T12:21:28;13.10;99.90
8595;DHT22;4335;48.860;9.198;2023-02-21T12:24:15;13.10;99.90
8595;DHT22;4335;48.860;9.198;2023-02-21T12:26:52;13.10;99.90
8595;DHT22;4335;48.860;9.198;2023-02-21T12:29:34;13.10;99.90
8595;DHT22;4335;48.860;9.198;2023-02-21T12:32:28;13.10;99.90
8595;DHT22;4335;48.860;9.198;2023-02-21T12:35:47;13.10;99.90
8595;DHT22;4335;48.860;9.198;2023-02-21T12:38:22;13.10;99.90
8595;DHT22;4335;48.860;9.198;2023-02-21T12:41:04;13.20;99.90
8595;DHT22;4335;48.860;9.198;2023-02-21T12:43:48;13.20;99.90
8595;DHT22;4335;48.860;9.198;2023-02-21T12:46:30;13.20;99.90
8595;DHT22;4335;48.860;9.198;2023-02-21T12:49:02;13.30;99.90
8595;DHT22;4335;48.860;9.198;2023-02-21T12:51:35;13.30;99.90
8595;DHT22;4335;48.860;9.198;2023-02-21T12:54:13;13.30;99.90
8595;DHT22;4335;48.860;9.198;2023-02-21T12:56:47;13.30;99.90
8595;DHT22;4335;48.860;9.198;2023-02-21T12:59:21;13.40;99.90
8595;DHT22;4335;48.860;9.198;2023-02-21T13:02:07;13.40;99.90
8595;DHT22;4335;48.860;9.198;2023-02-21T13:04:44;13.40;99.90
8595;DHT22;4335;48.860;9.198;2023-02-21T13:07:15;13.40;99.90
8595;DHT22;4335;48.860;9.198;2023-02-21T13:09:55;13.40;99.90
8595;DHT22;4335;48.860;9.198;2023-02-21T13:12:29;13.40;99.90
8595;DHT22;4335;48.860;9.198;2023-02-21T13:15:11;13.40;99.90
8595;DHT22;4335;48.860;9.198;2023-02-21T13:17:40;13.60;99.90
8595;DHT22;4335;48.860;9.198;2023-02-21T13:20:16;13.70;99.90
8595;DHT22;4335;48.860;9.198;2023-02-21T13:26:23;13.70;99.90
8595;DHT22;4335;48.860;9.198;2023-02-21T13:28:54;13.80;99.90
8595;DHT22;4335;48.860;9.198;2023-02-21T13:31:24;13.80;99.90
8595;DHT22;4335;48.860;9.198;2023-02-21T13:33:53;13.80;99.90
8595;DHT22;4335;48.860;9.198;2023-02-21T13:36:24;13.80;99.90
8595;DHT22;4335;48.860;9.198;2023-02-21T13:39:03;13.80;99.90
8595;DHT22;4335;48.860;9.198;2023-02-21T13:41:34;13.90;99.90
8595;DHT22;4335;48.860;9.198;2023-02-21T13:44:06;14.00;99.90
8595;DHT22;4335;48.860;9.198;2023-02-21T13:47:06;14.00;99.90
8595;DHT22;4335;48.860;9.198;2023-02-21T13:49:45;14.00;99.90
8595;DHT22;4335;48.860;9.198;2023-02-21T13:55:26;14.10;99.90
8595;DHT22;4335;48.860;9.198;2023-02-21T14:01:40;14.10;99.90
8595;DHT22;4335;48.860;9.198;2023-02-21T14:07:46;14.20;99.90
8595;DHT22;4335;48.860;9.198;2023-02-21T14:10:24;14.20;99.90
8595;DHT22;4335;48.860;9.198;2023-02-21T14:12:56;14.20;99.90
8595;DHT22;4335;48.860;9.198;2023-02-21T14:15:41;14.20;99.90
8595;DHT22;4335;48.860;9.198;2023-02-21T14:18:16;14.20;99.90
8595;DHT22;4335;48.860;9.198;2023-02-21T14:20:47;14.30;99.90
8595;DHT22;4335;48.860;9.198;2023-02-21T14:23:15;14.40;99.90
8595;DHT22;4335;48.860;9.198;2023-02-21T14:25:57;14.40;99.90
8595;DHT22;4335;48.860;9.198;2023-02-21T14:28:59;14.40;99.90
8595;DHT22;4335;48.860;9.198;2023-02-21T14:31:51;14.40;99.90
8595;DHT22;4335;48.860;9.198;2023-02-21T14:34:26;14.40;99.90
8595;DHT22;4335;48.860;9.198;2023-02-21T14:36:58;14.40;99.90
8595;DHT22;4335;48.860;9.198;2023-02-21T14:39:32;14.40;99.90
8595;DHT22;4335;48.860;9.198;2023-02-21T14:42:21;14.40;99.90
8595;DHT22;4335;48.860;9.198;2023-02-21T14:45:06;14.40;99.90
8595;DHT22;4335;48.860;9.198;2023-02-21T14:48:09;14.40;99.90
8595;DHT22;4335;48.860;9.198;2023-02-21T14:51:18;14.50;99.90
8595;DHT22;4335;48.860;9.198;2023-02-21T14:54:04;14.50;99.90
8595;DHT22;4335;48.860;9.198;2023-02-21T14:57:11;14.40;99.90
8595;DHT22;4335;48.860;9.198;2023-02-21T15:00:06;14.50;99.90
8595;DHT22;4335;48.860;9.198;2023-02-21T15:02:42;14.40;99.90
8595;DHT22;4335;48.860;9.198;2023-02-21T15:05:22;14.50;99.90
8595;DHT22;4335;48.860;9.198;2023-02-21T15:08:00;14.50;99.90
8595;DHT22;4335;48.860;9.198;2023-02-21T15:10:31;14.50;99.90
8595;DHT22;4335;48.860;9.198;2023-02-21T15:12:59;14.50;99.90
8595;DHT22;4335;48.860;9.198;2023-02-21T15:15:28;14.50;99.90
8595;DHT22;4335;48.860;9.198;2023-02-21T15:18:04;14.50;99.90
8595;DHT22;4335;48.860;9.198;2023-02-21T15:20:33;14.50;99.90
8595;DHT22;4335;48.860;9.198;2023-02-21T15:23:09;14.50;99.90
8595;DHT22;4335;48.860;9.198;2023-02-21T15:25:40;14.40;99.90
8595;DHT22;4335;48.860;9.198;2023-02-21T15:28:19;14.50;99.90
8595;DHT22;4335;48.860;9.198;2023-02-21T15:30:56;14.50;99.90
8595;DHT22;4335;48.860;9.198;2023-02-21T15:33:23;14.50;99.90
8595;DHT22;4335;48.860;9.198;2023-02-21T15:35:55;14.40;99.90
8595;DHT22;4335;48.860;9.198;2023-02-21T15:38:33;14.50;99.90
8595;DHT22;4335;48.860;9.198;2023-02-21T15:41:07;14.50;99.90
8595;DHT22;4335;48.860;9.198;2023-02-21T15:43:45;14.40;99.90
8595;DHT22;4335;48.860;9.198;2023-02-21T15:46:20;14.40;99.90
8595;DHT22;4335;48.860;9.198;2023-02-21T15:48:52;14.40;99.90
8595;DHT22;4335;48.860;9.198;2023-02-21T15:51:20;14.50;99.90
8595;DHT22;4335;48.860;9.198;2023-02-21T15:54:19;14.40;99.90
8595;DHT22;4335;48.860;9.198;2023-02-21T15:56:46;14.30;99.90
8595;DHT22;4335;48.860;9.198;2023-02-21T15:59:17;14.30;99.90
8595;DHT22;4335;48.860;9.198;2023-02-21T16:01:44;14.30;99.90
8595;DHT22;4335;48.860;9.198;2023-02-21T16:04:34;14.20;99.90
8595;DHT22;4335;48.860;9.198;2023-02-21T16:07:02;14.20;99.90
8595;DHT22;4335;48.860;9.198;2023-02-21T16:09:33;14.20;99.90
8595;DHT22;4335;48.860;9.198;2023-02-21T16:12:04;14.20;99.90
8595;DHT22;4335;48.860;9.198;2023-02-21T16:14:38;14.20;99.90
8595;DHT22;4335;48.860;9.198;2023-02-21T16:17:19;14.10;99.90
8595;DHT22;4335;48.860;9.198;2023-02-21T16:19:49;13.90;99.90
8595;DHT22;4335;48.860;9.198;2023-02-21T16:22:33;13.90;99.90
8595;DHT22;4335;48.860;9.198;2023-02-21T16:27:49;13.70;99.90
8595;DHT22;4335;48.860;9.198;2023-02-21T16:30:21;13.60;99.90
8595;DHT22;4335;48.860;9.198;2023-02-21T16:32:52;13.50;99.90
8595;DHT22;4335;48.860;9.198;2023-02-21T16:35:20;13.50;99.90
8595;DHT22;4335;48.860;9.198;2023-02-21T16:37:49;13.40;99.90
8595;DHT22;4335;48.860;9.198;2023-02-21T16:40:19;13.30;99.90
8595;DHT22;4335;48.860;9.198;2023-02-21T16:42:50;13.30;99.90
8595;DHT22;4335;48.860;9.198;2023-02-21T16:45:20;13.20;99.90
8595;DHT22;4335;48.860;9.198;2023-02-21T16:47:47;13.20;99.90
8595;DHT22;4335;48.860;9.198;2023-02-21T16:50:21;13.10;99.90
8595;DHT22;4335;48.860;9.198;2023-02-21T16:52:48;13.10;99.90
8595;DHT22;4335;48.860;9.198;2023-02-21T16:55:16;13.00;99.90
8595;DHT22;4335;48.860;9.198;2023-02-21T16:57:46;12.90;99.90
8595;DHT22;4335;48.860;9.198;2023-02-21T17:00:14;12.90;99.90
8595;DHT22;4335;48.860;9.198;2023-02-21T17:02:44;12.80;99.90
8595;DHT22;4335;48.860;9.198;2023-02-21T17:05:10;12.80;99.90
8595;DHT22;4335;48.860;9.198;2023-02-21T17:07:40;12.70;99.90
8595;DHT22;4335;48.860;9.198;2023-02-21T17:10:07;12.70;99.90
8595;DHT22;4335;48.860;9.198;2023-02-21T17:12:34;12.70;99.90
8595;DHT22;4335;48.860;9.198;2023-02-21T17:15:01;12.70;99.90
8595;DHT22;4335;48.860;9.198;2023-02-21T17:17:28;12.60;99.90
8595;DHT22;4335;48.860;9.198;2023-02-21T17:19:54;12.50;99.90
8595;DHT22;4335;48.860;9.198;2023-02-21T17:22:21;12.50;99.90